Time;durP1;ratioP1;P1;durP2;ratioP2;P2;SDS_P1;SDS_P2;PMS_P1;PMS_P2;Temp;Humidity;BMP_temperature;BMP_pressure;BME280_temperature;BME280_humidity;BME280_pressure;Samples;Min_cycle;Max_cycle;Signal;HPM_P1;HPM_P2
2022/11/11 00:01:13;;;;;;;7.77;7.10;;;8.20;99.90;;;;;;5012062;28;20207;-68
2022/11/11 00:03:38;;;;;;;7.77;7.17;;;8.20;99.90;;;;;;5013960;28;20618;-69
2022/11/11 00:06:15;;;;;;;8.93;7.60;;;8.20;99.90;;;;;;5013536;28;20238;-69
2022/11/11 00:08:41;;;;;;;13.57;8.17;;;8.20;99.90;;;;;;5013820;28;20211;-68
2022/11/11 00:11:12;;;;;;;8.47;7.77;;;8.20;99.90;;;;;;5013006;28;20273;-68
2022/11/11 00:13:39;;;;;;;8.43;7.53;;;8.10;99.90;;;;;;5012524;28;20234;-68
2022/11/11 00:16:18;;;;;;;8.97;8.27;;;8.10;99.90;;;;;;5012239;28;20218;-68
2022/11/11 00:27:12;;;;;;;8.70;7.90;;;8.00;99.90;;;;;;5013738;28;20231;-68
2022/11/11 00:29:38;;;;;;;8.53;7.70;;;7.90;99.90;;;;;;5012747;28;20203;-69
2022/11/11 00:37:35;;;;;;;12.07;8.33;;;7.90;99.90;;;;;;5013520;28;20676;-68
2022/11/11 00:40:02;;;;;;;9.20;8.20;;;7.80;99.90;;;;;;5011251;28;20207;-68
2022/11/11 00:42:27;;;;;;;8.83;8.13;;;7.80;99.90;;;;;;5012774;28;20700;-68
2022/11/11 00:44:53;;;;;;;9.07;8.27;;;7.70;99.90;;;;;;5013078;28;20173;-68
2022/11/11 00:52:50;;;;;;;9.47;8.53;;;7.60;99.90;;;;;;5012975;28;20684;-68
2022/11/11 00:55:16;;;;;;;9.97;8.73;;;7.60;99.90;;;;;;5011543;28;20184;-69
2022/11/11 00:57:41;;;;;;;9.50;8.70;;;7.60;99.90;;;;;;5012735;28;20637;-69
2022/11/11 01:00:08;;;;;;;9.83;9.03;;;7.60;99.90;;;;;;5012164;28;20255;-68
2022/11/11 01:02:33;;;;;;;8.87;8.23;;;7.60;99.90;;;;;;5011737;28;20259;-67
2022/11/11 01:04:59;;;;;;;9.57;8.60;;;7.60;99.90;;;;;;5012913;28;20271;-68
2022/11/11 01:07:24;;;;;;;9.07;8.17;;;7.60;99.90;;;;;;5011196;28;20230;-69
2022/11/11 01:09:50;;;;;;;9.80;8.77;;;7.60;99.90;;;;;;5011038;28;20187;-69
2022/11/11 01:12:16;;;;;;;9.47;8.57;;;7.60;99.90;;;;;;5012938;28;20206;-68
2022/11/11 01:14:41;;;;;;;16.97;8.63;;;7.60;99.90;;;;;;5012754;28;20349;-68
2022/11/11 01:17:08;;;;;;;10.73;9.47;;;7.60;99.90;;;;;;5012284;28;20195;-68
2022/11/11 01:19:34;;;;;;;11.60;9.83;;;7.50;99.90;;;;;;5012238;28;20235;-68
2022/11/11 01:22:00;;;;;;;11.47;10.37;;;7.50;99.90;;;;;;5011940;28;20231;-68
2022/11/11 01:24:26;;;;;;;11.90;9.87;;;7.50;99.90;;;;;;5012636;28;20603;-68
2022/11/11 01:26:51;;;;;;;11.03;9.93;;;7.40;99.90;;;;;;5012172;28;20207;-68
2022/11/11 01:29:17;;;;;;;9.87;8.97;;;7.40;99.90;;;;;;5010797;28;20184;-68
2022/11/11 01:31:43;;;;;;;13.87;9.57;;;7.40;99.90;;;;;;5011982;28;20204;-69
2022/11/11 01:34:09;;;;;;;12.63;10.03;;;7.30;99.90;;;;;;5010875;28;20238;-69
2022/11/11 01:36:34;;;;;;;11.87;9.73;;;7.30;99.90;;;;;;5010692;28;20219;-69
2022/11/11 01:39:00;;;;;;;12.93;10.83;;;7.20;99.90;;;;;;5010810;28;20204;-68
2022/11/11 01:41:36;;;;;;;10.23;9.23;;;7.20;99.90;;;;;;5011572;28;20679;-68
2022/11/11 01:44:11;;;;;;;17.67;10.20;;;7.10;99.90;;;;;;5011217;28;20551;-68
2022/11/11 01:46:41;;;;;;;10.93;9.83;;;7.10;99.90;;;;;;5011883;28;20593;-69
2022/11/11 01:49:32;;;;;;;13.20;9.30;;;7.10;99.90;;;;;;5010516;28;20206;-68
2022/11/11 01:52:17;;;;;;;10.40;9.40;;;7.00;99.90;;;;;;5011957;28;20227;-69
2022/11/11 01:54:58;;;;;;;13.13;9.33;;;7.00;99.90;;;;;;5011585;28;20833;-68
2022/11/11 01:57:47;;;;;;;8.87;8.07;;;6.90;99.90;;;;;;5011966;28;20243;-68
2022/11/11 02:00:17;;;;;;;11.77;8.53;;;6.80;99.90;;;;;;5011165;28;20215;-69
2022/11/11 02:02:46;;;;;;;9.83;8.77;;;6.70;99.90;;;;;;5010634;28;20168;-69
2022/11/11 02:08:04;;;;;;;11.27;8.80;;;6.70;99.90;;;;;;5012103;28;20203;-68
2022/11/11 02:10:32;;;;;;;10.10;9.13;;;6.60;99.90;;;;;;5009912;28;20266;-68
2022/11/11 02:15:43;;;;;;;10.33;9.20;;;6.50;99.90;;;;;;5011586;28;20191;-69
2022/11/11 02:18:08;;;;;;;12.53;9.53;;;6.50;99.90;;;;;;5010300;28;20183;-68
2022/11/11 02:20:38;;;;;;;9.77;8.00;;;6.50;99.90;;;;;;5011206;28;20207;-69
2022/11/11 02:23:11;;;;;;;9.53;8.60;;;6.50;99.90;;;;;;5011910;28;20175;-68
2022/11/11 02:25:39;;;;;;;12.37;8.63;;;6.50;99.90;;;;;;5010145;28;20187;-68
2022/11/11 02:28:06;;;;;;;14.67;8.67;;;6.50;99.90;;;;;;5010305;28;20176;-68
2022/11/11 02:30:32;;;;;;;10.67;9.70;;;6.60;99.90;;;;;;5009869;28;20208;-69
2022/11/11 02:32:58;;;;;;;10.47;9.37;;;6.60;99.90;;;;;;5011237;28;20200;-69
2022/11/11 02:35:42;;;;;;;9.90;9.00;;;6.60;99.90;;;;;;5011536;28;20262;-68
2022/11/11 02:38:10;;;;;;;16.00;8.33;;;6.70;99.90;;;;;;5010337;28;20589;-68
2022/11/11 02:43:26;;;;;;;13.03;9.67;;;6.70;99.90;;;;;;5011540;28;20206;-68
2022/11/11 02:45:52;;;;;;;14.77;9.47;;;6.70;99.90;;;;;;5010319;28;20849;-69
2022/11/11 02:48:18;;;;;;;9.40;8.50;;;6.70;99.90;;;;;;5011182;28;20181;-69
2022/11/11 02:50:43;;;;;;;12.83;10.90;;;6.70;99.90;;;;;;5009871;28;20287;-69
2022/11/11 02:53:09;;;;;;;9.77;8.80;;;6.70;99.90;;;;;;5011324;28;20251;-68
2022/11/11 02:55:35;;;;;;;8.73;7.93;;;6.70;99.90;;;;;;5011371;28;20699;-69
2022/11/11 02:58:00;;;;;;;11.57;9.17;;;6.70;99.90;;;;;;5011260;28;20168;-67
2022/11/11 03:00:26;;;;;;;11.40;8.23;;;6.70;99.90;;;;;;5009610;28;20224;-68
2022/11/11 03:02:51;;;;;;;13.33;9.87;;;6.70;99.90;;;;;;5009829;28;20176;-68
2022/11/11 03:05:17;;;;;;;10.27;8.73;;;6.70;99.90;;;;;;5011161;28;20176;-68
2022/11/11 03:07:43;;;;;;;14.57;10.77;;;6.70;99.90;;;;;;5011168;28;20175;-69
2022/11/11 03:10:08;;;;;;;15.47;9.83;;;6.70;99.90;;;;;;5010517;28;20214;-69
2022/11/11 03:12:34;;;;;;;12.77;10.27;;;6.70;99.90;;;;;;5011254;28;20630;-69
2022/11/11 03:15:00;;;;;;;10.37;9.20;;;6.70;99.90;;;;;;5009644;28;20632;-68
2022/11/11 03:17:41;;;;;;;11.27;9.30;;;6.70;99.90;;;;;;5011121;28;20176;-69
2022/11/11 03:23:08;;;;;;;14.90;9.77;;;6.60;99.90;;;;;;5011265;28;20554;-68
2022/11/11 03:25:47;;;;;;;11.20;10.03;;;6.60;99.90;;;;;;5012101;28;20242;-69
2022/11/11 03:28:20;;;;;;;10.70;9.67;;;6.60;99.90;;;;;;5014827;28;20222;-68
2022/11/11 03:30:47;;;;;;;15.47;10.03;;;6.50;99.90;;;;;;5014113;28;20354;-68
2022/11/11 03:33:14;;;;;;;12.77;9.90;;;6.50;99.90;;;;;;5014352;28;20173;-68
2022/11/11 03:35:41;;;;;;;11.43;10.20;;;6.50;99.90;;;;;;5014318;28;20176;-68
2022/11/11 03:38:15;;;;;;;12.07;9.83;;;6.50;99.90;;;;;;5014424;28;20633;-68
2022/11/11 03:40:47;;;;;;;10.87;9.87;;;6.50;99.90;;;;;;5013813;28;20681;-68
2022/11/11 03:43:15;;;;;;;13.53;10.03;;;6.50;99.90;;;;;;5014241;28;20184;-68
2022/11/11 03:45:42;;;;;;;11.13;9.73;;;6.60;99.90;;;;;;5014199;28;20184;-68
2022/11/11 03:48:08;;;;;;;9.90;8.97;;;6.60;99.90;;;;;;5014146;28;20172;-68
2022/11/11 03:50:33;;;;;;;10.93;9.63;;;6.60;99.90;;;;;;5012129;28;20187;-68
2022/11/11 03:52:59;;;;;;;13.33;9.93;;;6.60;99.90;;;;;;5012029;28;20182;-68
2022/11/11 03:55:25;;;;;;;10.97;8.90;;;6.70;99.90;;;;;;5013936;28;20168;-69
2022/11/11 03:57:51;;;;;;;10.83;9.73;;;6.70;99.90;;;;;;5011303;28;20223;-69
2022/11/11 04:00:20;;;;;;;12.73;10.43;;;6.70;99.90;;;;;;5012328;28;20223;-69
2022/11/11 04:11:10;;;;;;;10.87;9.03;;;6.60;99.90;;;;;;5014904;28;20214;-68
2022/11/11 04:16:20;;;;;;;14.67;9.47;;;6.60;99.90;;;;;;5013492;28;20250;-68
2022/11/11 04:21:44;;;;;;;9.87;8.87;;;6.60;99.90;;;;;;5013318;28;20198;-69
2022/11/11 04:27:05;;;;;;;10.13;9.20;;;6.50;99.90;;;;;;5013488;28;20231;-67
2022/11/11 04:29:31;;;;;;;12.10;9.70;;;6.50;99.90;;;;;;5012042;28;20204;-67
2022/11/11 04:34:46;;;;;;;8.90;7.90;;;6.50;99.90;;;;;;4993667;28;20191;-68
2022/11/11 04:37:12;;;;;;;18.17;10.07;;;6.50;99.90;;;;;;5003567;28;20188;-67
2022/11/11 04:42:22;;;;;;;16.10;9.00;;;6.40;99.90;;;;;;5012852;28;20183;-68
2022/11/11 04:48:06;;;;;;;13.97;9.70;;;6.40;99.90;;;;;;4957391;28;20170;-68
2022/11/11 04:50:37;;;;;;;9.57;8.43;;;6.40;99.90;;;;;;4952055;29;20273;-68
2022/11/11 04:53:05;;;;;;;9.87;8.87;;;6.40;99.90;;;;;;4990644;28;20192;-67
2022/11/11 04:58:17;;;;;;;11.20;8.03;;;6.40;99.90;;;;;;5011669;28;20667;-68
2022/11/11 05:00:42;;;;;;;10.00;9.20;;;6.50;99.90;;;;;;5012239;28;20196;-67
2022/11/11 05:03:15;;;;;;;13.27;8.60;;;6.50;99.90;;;;;;5011642;28;20227;-67
2022/11/11 05:09:00;;;;;;;9.43;8.40;;;6.50;99.90;;;;;;5009172;28;20199;-67
2022/11/11 05:11:31;;;;;;;15.97;9.30;;;6.50;99.90;;;;;;5011919;28;20230;-68
2022/11/11 05:22:18;;;;;;;11.27;7.97;;;6.50;99.90;;;;;;5012397;28;20215;-68
2022/11/11 05:27:28;;;;;;;15.13;8.57;;;6.60;99.90;;;;;;5012051;28;20187;-68
2022/11/11 05:29:54;;;;;;;8.30;7.60;;;6.60;99.90;;;;;;5010760;28;20176;-68
2022/11/11 05:32:21;;;;;;;8.07;7.40;;;6.50;99.90;;;;;;5012006;28;20192;-69
2022/11/11 05:34:47;;;;;;;10.83;8.97;;;6.50;99.90;;;;;;5010936;28;20176;-68
2022/11/11 05:37:13;;;;;;;12.40;9.77;;;6.50;99.90;;;;;;5011912;28;20267;-69
2022/11/11 05:39:38;;;;;;;9.60;8.57;;;6.50;99.90;;;;;;5011802;28;20283;-67
2022/11/11 05:42:04;;;;;;;9.47;8.57;;;6.50;99.90;;;;;;5011768;28;20196;-68
2022/11/11 05:44:30;;;;;;;10.37;8.83;;;6.50;99.90;;;;;;5012032;28;20255;-67
2022/11/11 05:46:55;;;;;;;9.93;8.87;;;6.50;99.90;;;;;;5011316;28;20176;-68
2022/11/11 05:49:22;;;;;;;8.80;7.93;;;6.50;99.90;;;;;;5011732;28;20176;-68
2022/11/11 05:51:48;;;;;;;8.67;7.77;;;6.50;99.90;;;;;;5011484;28;20279;-68
2022/11/11 05:54:14;;;;;;;10.13;8.63;;;6.50;99.90;;;;;;5010857;28;20183;-68
2022/11/11 05:56:40;;;;;;;8.57;7.77;;;6.60;99.90;;;;;;5011096;28;20180;-69
2022/11/11 05:59:06;;;;;;;10.93;8.43;;;6.50;99.90;;;;;;5010042;28;20268;-68
2022/11/11 06:01:32;;;;;;;12.93;8.67;;;6.50;99.90;;;;;;5011334;28;20657;-68
2022/11/11 06:03:58;;;;;;;20.53;10.37;;;6.60;99.90;;;;;;5010606;28;20176;-67
2022/11/11 06:06:23;;;;;;;11.17;8.43;;;6.60;99.90;;;;;;5011392;28;20179;-67
2022/11/11 06:08:49;;;;;;;9.70;8.53;;;6.60;99.90;;;;;;5010737;28;20176;-68
2022/11/11 06:11:14;;;;;;;10.47;9.43;;;6.50;99.90;;;;;;5010905;28;20211;-68
2022/11/11 06:13:40;;;;;;;10.83;9.13;;;6.50;99.90;;;;;;5010615;28;20175;-68
2022/11/11 06:16:06;;;;;;;8.20;7.33;;;6.50;99.90;;;;;;5011388;28;20192;-68
2022/11/11 06:18:32;;;;;;;9.33;8.53;;;6.50;99.90;;;;;;5010267;28;20628;-68
2022/11/11 06:20:58;;;;;;;8.77;7.87;;;6.60;99.90;;;;;;5009920;28;20259;-68
2022/11/11 06:23:25;;;;;;;10.43;9.00;;;6.50;99.90;;;;;;5010299;28;20605;-68
2022/11/11 06:28:35;;;;;;;9.80;8.80;;;6.40;99.90;;;;;;5011439;28;20226;-68
2022/11/11 06:31:01;;;;;;;10.20;9.13;;;6.40;99.90;;;;;;5011257;28;20191;-68
2022/11/11 06:33:27;;;;;;;9.63;8.73;;;6.50;99.90;;;;;;5009827;28;20306;-69
2022/11/11 06:35:53;;;;;;;11.50;8.40;;;6.40;99.90;;;;;;5010284;28;20208;-68
2022/11/11 06:38:19;;;;;;;10.43;9.07;;;6.50;99.90;;;;;;5009843;28;20230;-68
2022/11/11 06:40:44;;;;;;;12.43;8.63;;;6.50;99.90;;;;;;5010033;28;20763;-69
2022/11/11 06:43:10;;;;;;;9.80;8.87;;;6.50;99.90;;;;;;5009877;28;20183;-68
2022/11/11 06:45:36;;;;;;;10.37;8.73;;;6.50;99.90;;;;;;5011593;28;20177;-68
2022/11/11 06:48:03;;;;;;;9.70;8.67;;;6.50;99.90;;;;;;5009999;28;20275;-67
2022/11/11 06:50:29;;;;;;;10.40;8.90;;;6.50;99.90;;;;;;4993434;28;20235;-68
2022/11/11 06:52:55;;;;;;;12.33;8.87;;;6.50;99.90;;;;;;5010009;28;20235;-67
2022/11/11 06:55:21;;;;;;;10.33;9.00;;;6.50;99.90;;;;;;5009942;28;20173;-67
2022/11/11 06:57:47;;;;;;;9.30;8.47;;;6.60;99.90;;;;;;5010309;28;20215;-67
2022/11/11 07:00:13;;;;;;;10.67;8.30;;;6.60;99.90;;;;;;5013406;28;20708;-67
2022/11/11 07:02:39;;;;;;;11.50;9.20;;;6.60;99.90;;;;;;5014801;28;20211;-67
2022/11/11 07:05:05;;;;;;;11.47;8.53;;;6.70;99.90;;;;;;5013829;28;20452;-67
2022/11/11 07:07:31;;;;;;;8.70;8.07;;;6.70;99.90;;;;;;5014925;28;20185;-67
2022/11/11 07:09:57;;;;;;;11.43;10.20;;;6.70;99.90;;;;;;5013122;28;20183;-68
2022/11/11 07:12:23;;;;;;;13.77;8.80;;;6.70;99.90;;;;;;5015068;28;20180;-68
2022/11/11 07:14:49;;;;;;;15.23;9.53;;;6.80;99.90;;;;;;5012274;28;20183;-67
2022/11/11 07:17:14;;;;;;;10.47;8.90;;;6.80;99.90;;;;;;5012242;28;20180;-67
2022/11/11 07:19:40;;;;;;;11.07;9.17;;;6.80;99.90;;;;;;5013042;28;20254;-68
2022/11/11 07:22:06;;;;;;;10.73;9.63;;;6.90;99.90;;;;;;5014177;28;20196;-68
2022/11/11 07:24:31;;;;;;;10.60;9.57;;;6.90;99.90;;;;;;5012979;28;20176;-68
2022/11/11 07:26:58;;;;;;;10.07;9.07;;;6.90;99.90;;;;;;5014363;28;20199;-68
2022/11/11 07:29:24;;;;;;;12.87;10.80;;;7.00;99.90;;;;;;5014543;28;20518;-67
2022/11/11 07:31:50;;;;;;;10.13;9.10;;;7.00;99.90;;;;;;5014411;28;20198;-68
2022/11/11 07:34:15;;;;;;;18.93;9.20;;;7.00;99.90;;;;;;5012801;28;20187;-68
2022/11/11 07:36:41;;;;;;;11.50;9.10;;;7.10;99.90;;;;;;5014605;28;20176;-68
2022/11/11 07:39:07;;;;;;;19.37;10.40;;;7.10;99.90;;;;;;5013717;28;20196;-68
2022/11/11 07:41:32;;;;;;;16.60;9.37;;;7.20;99.90;;;;;;5014156;28;20199;-68
2022/11/11 07:43:58;;;;;;;11.57;9.17;;;7.20;99.90;;;;;;5013788;28;20183;-68
2022/11/11 07:46:24;;;;;;;11.37;9.47;;;7.30;99.90;;;;;;5012917;28;20176;-68
2022/11/11 07:48:50;;;;;;;10.67;9.57;;;7.40;99.90;;;;;;5014041;28;20184;-67
2022/11/11 07:51:15;;;;;;;11.37;10.30;;;7.40;99.90;;;;;;5011954;28;20211;-69
2022/11/11 07:53:41;;;;;;;10.07;9.20;;;7.50;99.90;;;;;;5012485;28;20180;-69
2022/11/11 07:56:07;;;;;;;15.93;9.77;;;7.60;99.90;;;;;;5014069;28;20300;-68
2022/11/11 07:58:32;;;;;;;15.13;10.70;;;7.70;99.90;;;;;;5012080;28;20262;-68
2022/11/11 08:00:59;;;;;;;14.23;9.30;;;7.80;99.90;;;;;;5013653;28;20551;-69
2022/11/11 08:03:25;;;;;;;10.30;9.30;;;7.90;99.90;;;;;;5013686;28;20173;-68
2022/11/11 08:05:50;;;;;;;13.77;9.93;;;8.00;99.90;;;;;;5013855;28;20168;-68
2022/11/11 08:08:16;;;;;;;10.77;9.50;;;8.10;99.90;;;;;;5013374;28;20183;-68
2022/11/11 08:10:41;;;;;;;10.93;9.83;;;8.20;99.90;;;;;;5012610;28;20211;-68
2022/11/11 08:15:55;;;;;;;11.93;9.70;;;8.30;99.90;;;;;;5013718;28;20318;-68
2022/11/11 08:18:20;;;;;;;13.00;9.70;;;8.30;99.90;;;;;;5011923;28;20270;-68
2022/11/11 08:20:46;;;;;;;16.57;10.30;;;8.40;99.90;;;;;;5013188;28;20188;-68
2022/11/11 08:23:13;;;;;;;11.57;9.37;;;8.50;99.90;;;;;;5013181;28;20180;-68
2022/11/11 08:25:39;;;;;;;10.47;9.40;;;8.60;99.90;;;;;;5013295;28;20314;-68
2022/11/11 08:28:05;;;;;;;11.37;10.30;;;8.60;99.90;;;;;;5013356;28;20172;-68
2022/11/11 08:30:32;;;;;;;17.23;12.27;;;8.70;99.90;;;;;;5011138;28;20211;-68
2022/11/11 08:33:03;;;;;;;13.87;10.97;;;8.70;99.90;;;;;;5008803;28;20177;-68
2022/11/11 08:35:29;;;;;;;14.60;9.67;;;8.90;99.90;;;;;;5008845;28;20674;-69
2022/11/11 08:37:55;;;;;;;9.57;8.63;;;8.90;99.90;;;;;;5012672;28;20188;-68
2022/11/11 08:40:21;;;;;;;9.23;8.47;;;9.00;99.90;;;;;;5012421;28;20215;-68
2022/11/11 08:42:47;;;;;;;11.67;9.00;;;;;;;;;;5012974;28;20207;-68
2022/11/11 08:45:13;;;;;;;10.40;9.43;;;9.10;99.90;;;;;;5012838;28;20606;-68
2022/11/11 08:47:39;;;;;;;12.13;9.03;;;9.20;99.90;;;;;;5011321;28;20210;-68
2022/11/11 08:50:05;;;;;;;18.13;9.90;;;9.30;99.90;;;;;;5012676;28;20255;-68
2022/11/11 08:52:31;;;;;;;13.30;10.73;;;9.40;99.90;;;;;;5010023;28;20254;-68
2022/11/11 08:54:59;;;;;;;11.83;9.77;;;9.50;99.90;;;;;;5013195;28;20172;-68
2022/11/11 08:57:25;;;;;;;10.83;9.83;;;9.60;99.90;;;;;;5012323;28;20183;-68
2022/11/11 08:59:50;;;;;;;9.43;8.53;;;9.80;99.90;;;;;;5011292;28;20204;-68
2022/11/11 09:02:16;;;;;;;12.10;8.90;;;9.90;99.90;;;;;;5012295;28;20187;-68
2022/11/11 09:04:42;;;;;;;12.23;8.63;;;10.00;99.90;;;;;;5012737;28;20175;-68
2022/11/11 09:07:09;;;;;;;12.37;9.17;;;10.20;99.90;;;;;;5012705;28;20327;-68
2022/11/11 09:09:34;;;;;;;9.83;8.37;;;10.20;99.90;;;;;;5012266;28;20206;-68
2022/11/11 09:12:00;;;;;;;10.50;8.70;;;10.30;99.90;;;;;;5012196;28;20208;-69
2022/11/11 09:14:26;;;;;;;9.93;8.23;;;10.40;99.90;;;;;;5011172;28;20223;-68
2022/11/11 09:16:52;;;;;;;9.30;8.00;;;10.50;99.90;;;;;;5012245;28;20180;-68
2022/11/11 09:19:17;;;;;;;8.87;8.03;;;10.70;99.90;;;;;;5012111;28;20568;-67
2022/11/11 09:21:43;;;;;;;8.53;7.60;;;10.80;99.90;;;;;;5011184;28;20573;-68
2022/11/11 09:24:08;;;;;;;10.57;8.27;;;11.00;99.90;;;;;;5010218;28;20188;-68
2022/11/11 09:26:34;;;;;;;11.90;8.23;;;11.10;99.90;;;;;;5011930;28;20250;-68
2022/11/11 09:29:00;;;;;;;10.37;7.30;;;11.20;99.90;;;;;;5013073;28;20183;-68
2022/11/11 09:31:26;;;;;;;13.40;8.57;;;11.40;99.90;;;;;;5011858;28;20564;-68
2022/11/11 09:33:52;;;;;;;9.00;6.83;;;11.60;99.90;;;;;;5012251;28;20180;-68
2022/11/11 09:36:18;;;;;;;12.50;7.53;;;11.70;99.90;;;;;;5010374;28;20176;-68
2022/11/11 09:38:44;;;;;;;8.07;7.33;;;11.70;99.90;;;;;;5012138;28;20203;-67
2022/11/11 09:41:44;;;;;;;8.13;7.33;;;11.80;99.90;;;;;;5011603;28;20284;-67
2022/11/11 09:45:00;;;;;;;10.97;7.97;;;11.80;99.90;;;;;;4995959;28;20195;-67
2022/11/11 09:47:41;;;;;;;8.70;6.93;;;12.00;99.90;;;;;;4994296;28;20192;-67
2022/11/11 09:50:25;;;;;;;8.80;7.03;;;12.00;99.90;;;;;;5010247;28;20191;-67
2022/11/11 09:52:59;;;;;;;7.13;6.43;;;12.10;99.90;;;;;;5011231;28;20177;-67
2022/11/11 09:55:32;;;;;;;10.07;7.60;;;12.30;99.90;;;;;;5008915;28;20256;-67
2022/11/11 09:58:19;;;;;;;7.53;6.87;;;12.50;99.90;;;;;;5011959;28;20172;-67
2022/11/11 10:00:50;;;;;;;7.00;6.30;;;12.60;99.90;;;;;;5010216;28;20231;-67
2022/11/11 10:03:19;;;;;;;7.67;6.80;;;12.60;99.90;;;;;;5011811;28;20175;-67
2022/11/11 10:05:51;;;;;;;7.97;5.80;;;12.70;99.90;;;;;;5010062;28;20204;-67
2022/11/11 10:08:25;;;;;;;11.23;6.93;;;12.80;99.90;;;;;;5010427;28;20550;-67
2022/11/11 10:10:53;;;;;;;7.57;6.63;;;12.90;99.90;;;;;;5011355;28;20578;-67
2022/11/11 10:13:45;;;;;;;8.93;6.57;;;13.00;99.90;;;;;;5011998;28;20228;-68
2022/11/11 10:16:32;;;;;;;10.37;8.10;;;13.00;99.90;;;;;;5006399;28;20192;-68
2022/11/11 10:19:16;;;;;;;8.63;7.13;;;13.00;99.90;;;;;;5010665;28;20494;-68
2022/11/11 10:21:53;;;;;;;6.83;6.13;;;13.20;99.90;;;;;;5011386;28;20192;-67
2022/11/11 10:24:34;;;;;;;7.40;6.70;;;13.30;99.90;;;;;;5010278;28;20509;-68
2022/11/11 10:27:06;;;;;;;6.97;6.37;;;13.40;99.90;;;;;;5011473;28;20653;-67
2022/11/11 10:29:44;;;;;;;8.20;6.70;;;13.30;99.90;;;;;;5010905;28;20176;-67
2022/11/11 10:32:28;;;;;;;6.60;6.10;;;13.40;99.90;;;;;;5011536;28;20207;-67
2022/11/11 10:35:03;;;;;;;7.83;5.47;;;13.50;99.90;;;;;;5013588;28;20184;-67
2022/11/11 10:37:39;;;;;;;6.60;6.10;;;13.60;99.90;;;;;;5015205;28;20519;-67
2022/11/11 10:40:28;;;;;;;6.47;5.97;;;13.60;99.90;;;;;;4995466;28;20211;-67
2022/11/11 10:42:53;;;;;;;7.20;5.83;;;13.60;99.90;;;;;;5012916;28;20173;-67
2022/11/11 10:45:28;;;;;;;5.80;5.40;;;13.60;99.90;;;;;;5015015;28;20648;-67
2022/11/11 10:47:57;;;;;;;5.93;5.33;;;13.70;99.90;;;;;;5015043;28;20676;-67
2022/11/11 10:50:31;;;;;;;6.33;5.70;;;13.90;99.90;;;;;;4995299;28;20299;-66
2022/11/11 10:53:05;;;;;;;7.67;5.93;;;14.10;99.90;;;;;;4996915;28;20208;-68
2022/11/11 10:55:40;;;;;;;6.40;5.90;;;14.30;99.90;;;;;;5014696;28;20201;-67
2022/11/11 10:59:01;;;;;;;6.33;5.10;;;14.30;99.90;;;;;;5010234;28;20184;-67
2022/11/11 11:01:36;;;;;;;6.70;5.43;;;14.30;99.90;;;;;;4991625;28;20220;-68
2022/11/11 11:04:33;;;;;;;5.73;5.23;;;14.50;99.90;;;;;;5013473;28;20182;-69
2022/11/11 11:07:01;;;;;;;6.80;6.10;;;14.60;99.90;;;;;;4992631;28;20184;-68
2022/11/11 11:09:36;;;;;;;6.43;5.83;;;14.60;99.90;;;;;;5014218;28;20184;-68
2022/11/11 11:12:21;;;;;;;9.17;5.87;;;14.60;99.90;;;;;;5012095;28;20552;-68
2022/11/11 11:14:55;;;;;;;6.23;5.63;;;14.60;99.90;;;;;;5014370;28;20184;-68
2022/11/11 11:17:38;;;;;;;10.27;5.83;;;14.60;99.90;;;;;;5014689;28;20272;-68
2022/11/11 11:20:10;;;;;;;6.10;5.50;;;14.50;99.90;;;;;;5014291;28;20290;-68
2022/11/11 11:22:54;;;;;;;6.47;5.80;;;14.50;99.90;;;;;;5013228;28;20642;-68
2022/11/11 11:25:22;;;;;;;6.03;5.43;;;14.50;99.90;;;;;;5014096;28;20521;-68
2022/11/11 11:27:50;;;;;;;6.43;5.57;;;14.60;99.90;;;;;;5012686;28;20172;-68
2022/11/11 11:30:22;;;;;;;6.37;5.47;;;14.70;99.90;;;;;;5013752;28;20203;-68
2022/11/11 11:32:56;;;;;;;6.63;6.03;;;14.90;99.90;;;;;;5014016;28;20817;-68
2022/11/11 11:35:38;;;;;;;5.70;5.20;;;15.10;99.90;;;;;;5014587;28;20310;-68
2022/11/11 11:38:06;;;;;;;8.27;5.17;;;15.40;99.90;;;;;;5014325;28;20278;-68
2022/11/11 11:40:49;;;;;;;12.03;5.00;;;15.60;99.90;;;;;;5013859;28;20218;-67
2022/11/11 11:43:37;;;;;;;6.67;4.53;;;15.90;99.90;;;;;;5014200;28;20215;-68
2022/11/11 11:46:25;;;;;;;5.40;4.87;;;16.20;99.90;;;;;;5012311;28;20227;-68
2022/11/11 11:49:04;;;;;;;5.03;4.63;;;16.50;99.90;;;;;;5013142;28;20234;-68
2022/11/11 11:51:42;;;;;;;5.20;4.70;;;16.80;99.90;;;;;;5013913;28;20596;-68
2022/11/11 11:54:14;;;;;;;5.40;4.87;;;17.00;99.90;;;;;;4994864;28;20169;-68
2022/11/11 11:56:53;;;;;;;5.33;4.73;;;17.10;99.90;;;;;;4995216;28;20177;-68
2022/11/11 11:59:54;;;;;;;5.07;4.57;;;17.20;99.90;;;;;;5013824;28;20270;-67
2022/11/11 12:03:01;;;;;;;7.57;4.53;;;17.20;99.90;;;;;;5013407;28;20675;-68
2022/11/11 12:05:42;;;;;;;6.83;4.53;;;17.00;99.90;;;;;;5013344;28;20182;-68
2022/11/11 12:08:48;;;;;;;6.60;5.10;;;17.10;99.90;;;;;;5007801;28;20183;-68
2022/11/11 12:11:21;;;;;;;5.60;4.50;;;17.10;99.90;;;;;;5013784;28;20216;-68
2022/11/11 12:14:15;;;;;;;6.00;5.20;;;17.10;99.90;;;;;;5012286;28;20179;-68
2022/11/11 12:16:52;;;;;;;5.17;4.40;;;17.30;99.90;;;;;;5004800;28;20191;-67
2022/11/11 12:19:48;;;;;;;6.10;5.50;;;17.40;99.90;;;;;;5013234;28;20531;-68
2022/11/11 12:22:37;;;;;;;5.20;4.80;;;17.50;99.90;;;;;;5013336;28;20275;-68
2022/11/11 12:25:21;;;;;;;5.20;4.80;;;17.60;99.90;;;;;;5013594;28;20544;-68
2022/11/11 12:28:19;;;;;;;4.70;4.33;;;17.80;99.90;;;;;;5011670;28;20605;-68
2022/11/11 12:31:05;;;;;;;5.97;4.67;;;17.80;99.90;;;;;;5011589;28;20196;-68
2022/11/11 12:33:41;;;;;;;4.77;4.47;;;17.90;99.90;;;;;;5013419;28;20183;-67
2022/11/11 12:36:21;;;;;;;5.10;4.40;;;18.00;99.90;;;;;;5011894;28;20206;-68
2022/11/11 12:39:29;;;;;;;4.40;4.07;;;18.00;99.90;;;;;;5013290;28;20542;-67
2022/11/11 12:42:00;;;;;;;4.57;4.17;;;18.00;99.90;;;;;;5013057;28;20215;-67
2022/11/11 12:44:40;;;;;;;4.40;4.10;;;18.00;99.90;;;;;;5013428;28;20526;-67
2022/11/11 12:47:30;;;;;;;4.43;4.03;;;18.00;99.90;;;;;;5013079;28;20184;-68
2022/11/11 12:49:59;;;;;;;4.00;3.70;;;17.90;99.90;;;;;;5011867;28;20180;-68
2022/11/11 12:52:52;;;;;;;3.73;3.53;;;18.00;99.90;;;;;;5012281;28;20661;-68
2022/11/11 12:55:20;;;;;;;4.63;4.20;;;18.00;99.90;;;;;;5011410;28;20195;-68
2022/11/11 12:58:19;;;;;;;4.57;4.17;;;18.00;99.90;;;;;;4997092;28;20180;-68
2022/11/11 13:01:12;;;;;;;4.43;4.03;;;18.00;99.90;;;;;;4996787;28;20223;-67
2022/11/11 13:04:21;;;;;;;8.87;4.27;;;17.90;99.90;;;;;;5012776;28;20180;-68
2022/11/11 13:07:19;;;;;;;6.50;3.97;;;17.90;99.90;;;;;;5011631;28;20204;-68
2022/11/11 13:09:59;;;;;;;3.60;3.40;;;17.90;99.90;;;;;;5012150;28;20218;-67
2022/11/11 13:12:37;;;;;;;3.93;3.63;;;18.00;99.90;;;;;;5011741;28;20227;-67
2022/11/11 13:15:17;;;;;;;5.33;3.97;;;18.00;99.90;;;;;;5011228;28;20191;-67
2022/11/11 13:17:43;;;;;;;6.40;3.63;;;18.00;99.90;;;;;;5012658;28;20186;-67
2022/11/11 13:20:21;;;;;;;4.13;3.90;;;18.00;99.90;;;;;;5012067;28;20203;-67
2022/11/11 13:22:49;;;;;;;5.30;3.67;;;17.90;99.90;;;;;;5012552;28;20168;-67
2022/11/11 13:25:29;;;;;;;3.97;3.57;;;17.80;99.90;;;;;;5012217;28;20649;-67
2022/11/11 13:28:06;;;;;;;3.70;3.50;;;17.70;99.90;;;;;;5012045;28;20274;-67
2022/11/11 13:30:37;;;;;;;5.30;3.83;;;17.70;99.90;;;;;;5012014;28;20262;-67
2022/11/11 13:33:10;;;;;;;3.70;3.40;;;17.60;99.90;;;;;;5012101;28;20187;-67
2022/11/11 13:35:46;;;;;;;4.00;3.73;;;17.60;99.90;;;;;;5009445;28;20235;-67
2022/11/11 13:38:27;;;;;;;4.40;4.00;;;17.60;99.90;;;;;;5010450;28;20267;-67
2022/11/11 13:40:55;;;;;;;4.03;3.63;;;17.60;99.90;;;;;;5011524;28;20211;-68
2022/11/11 13:43:54;;;;;;;4.17;3.87;;;17.50;99.90;;;;;;5010560;28;20385;-67
2022/11/11 13:46:37;;;;;;;4.63;3.70;;;17.60;99.90;;;;;;5007324;28;20188;-67
2022/11/11 13:49:07;;;;;;;3.80;3.60;;;17.60;99.90;;;;;;5012525;28;20183;-67
2022/11/11 13:51:41;;;;;;;4.03;3.67;;;17.70;99.90;;;;;;5012489;28;20855;-67
2022/11/11 13:54:20;;;;;;;4.07;3.77;;;17.70;99.90;;;;;;5013231;28;20217;-67
2022/11/11 13:56:47;;;;;;;3.83;3.60;;;17.80;99.90;;;;;;5011768;28;20199;-67
2022/11/11 13:59:26;;;;;;;3.70;3.50;;;17.90;99.90;;;;;;5011009;28;20254;-68
2022/11/11 14:02:18;;;;;;;4.33;3.97;;;17.90;99.90;;;;;;5011883;28;20286;-67
2022/11/11 14:05:04;;;;;;;3.70;3.50;;;18.00;99.90;;;;;;5011513;28;20183;-67
2022/11/11 14:07:48;;;;;;;4.97;4.03;;;18.00;99.90;;;;;;5011681;28;20408;-68
2022/11/11 14:10:16;;;;;;;4.17;3.97;;;18.20;99.90;;;;;;5009564;28;20226;-68
2022/11/11 14:12:53;;;;;;;4.00;3.80;;;18.20;99.90;;;;;;5010275;28;20204;-68
2022/11/11 14:15:37;;;;;;;4.13;3.73;;;18.30;99.90;;;;;;5011813;28;20183;-68
2022/11/11 14:18:07;;;;;;;5.07;3.53;;;18.30;99.90;;;;;;5011649;28;20172;-68
2022/11/11 14:20:41;;;;;;;4.13;3.90;;;18.30;99.90;;;;;;5010971;28;20208;-68
2022/11/11 14:23:19;;;;;;;3.40;3.20;;;18.40;99.90;;;;;;5007469;28;20255;-67
2022/11/11 14:26:18;;;;;;;3.40;3.20;;;18.30;99.90;;;;;;5011409;28;20176;-67
2022/11/11 14:28:46;;;;;;;3.33;3.10;;;18.30;99.90;;;;;;4989064;28;20559;-67
2022/11/11 14:31:12;;;;;;;3.70;3.40;;;18.30;99.90;;;;;;5011098;28;20677;-68